Airfield :
LOGIN :

Register | Disclaimer

   EN    FR    IT 

 










Legend :    VFR   Marginal VFR   IFR   Intensive IFR   Very Intensive IFR
Visi :
Ceiling :
>= 8 km
>= 3000ft
5 to 8 km
1000 to 3000 ft
1500m to 5 km
500 to 1000 ft
800 to 1500m
200 to 500 ft
< 800m
< 200 ft
Symbols :   Thunderstorms  Fog  Heavy snow  Heavy precipitations  Wind > 20 kt
SIGMETs :     Misc.  Thunderstorms  Icing  Turbulence  Mountain Waves  Volcanic Ashes







- Airport Elevation : 157 ft
- IATA code : SXF


EDDB - Berlin Schönefeld

CURRENT METAR :
  • 212120Z 26009KT 9999 FEW041 12/06 Q1016 NOSIG

EXPIRED METARs :
  • 212050Z 28011KT 9999 FEW042 13/05 Q1016 NOSIG
  • 212020Z 29012KT 9999 FEW048 13/05 Q1016 TEMPO 29015G25KT
  • 211950Z 29013KT 9999 SCT047 14/05 Q1016 TEMPO 29020G30KT
  • 211920Z 30021KT 9999 FEW046 14/04 Q1015 TEMPO 30020G30KT
  • 211850Z 29015KT 9999 BKN043 15/04 Q1015 TEMPO 29020G35KT

TAF TAF EDDB
Valid from the 21 at 18:00 until the 22 at 18:00 UTC


211700Z 2118/2218 28015G30KT 9999 SCT045
TEMPO 2118/2120 28020G35KT
BECMG 2120/2123 26012KT
PROB40
TEMPO 2202/2207 RA
BECMG 2205/2207 27015G25KT
PROB30
TEMPO 2210/2218 TSRA SCT011CB BKN014
No reported NOTAMs for that airfield.



MET'MAP, your aeronautical weather chart ! - Copyright ORBIFLY December 2007 - Disclaimer

ORBIFLY MET'MAP TEAM :

Programming & Development : Alexandra Zaïnal
Concept & Development : Baudouin d'Aumeries
Co-Development & Prog : Marc-Olivier Méhu
Technical & hardware support : Manuel Goepfert

Contact : metmap@orbifly.com




SOURCES & CREDITS :

   NOAA